Time;durP1;ratioP1;P1;durP2;ratioP2;P2;SDS_P1;SDS_P2;PMS_P1;PMS_P2;Temp;Humidity;BMP_temperature;BMP_pressure;BME280_temperature;BME280_humidity;BME280_pressure;Samples;Min_cycle;Max_cycle;Signal;HPM_P1;HPM_P2
2021/12/23 00:00:11;;;;;;;4.40;2.10;;;;;;;-9.97;70.84;99714.06;102327;1316;73203;-20
2021/12/23 00:02:39;;;;;;;2.00;1.50;;;;;;;-10.28;71.93;99716.86;101926;1316;73501;-19
2021/12/23 00:05:09;;;;;;;2.70;1.30;;;;;;;-10.28;73.04;99719.55;102251;1313;71616;-19
2021/12/23 00:07:38;;;;;;;4.00;2.00;;;;;;;-9.56;70.55;99724.80;102215;1312;61292;-19
2021/12/23 00:10:08;;;;;;;4.20;2.20;;;;;;;-9.50;69.21;99727.05;102133;1314;61189;-19
2021/12/23 00:12:39;;;;;;;3.90;2.10;;;;;;;-9.63;69.46;99726.23;101133;1313;1003344;-20
2021/12/23 00:15:30;;;;;;;3.10;2.00;;;;;;;-10.01;69.02;99723.09;102129;1313;76604;-19
2021/12/23 00:18:06;;;;;;;2.60;1.70;;;;;;;-10.28;69.62;99722.73;102247;1313;73522;-19
2021/12/23 00:25:56;;;;;;;2.60;1.80;;;;;;;-9.95;68.92;99724.17;102264;1313;75607;-19
2021/12/23 00:28:24;;;;;;;4.20;2.90;;;;;;;-9.64;67.48;99725.89;102161;1314;73540;-19
2021/12/23 00:30:53;;;;;;;5.00;2.30;;;;;;;-9.77;67.75;99722.04;102206;1312;74387;-19
2021/12/23 00:33:22;;;;;;;4.10;2.80;;;;;;;-9.95;68.42;99725.18;102281;1313;61116;-20
2021/12/23 00:35:53;;;;;;;3.50;2.30;;;;;;;-10.32;70.17;99727.90;102242;1313;62744;-19
2021/12/23 00:38:28;;;;;;;3.50;2.50;;;;;;;-10.35;71.50;99724.98;102268;1313;75959;-19
2021/12/23 00:40:58;;;;;;;0.80;0.80;;;;;;;-10.26;72.23;99727.13;102277;1314;75078;-19
2021/12/23 00:43:26;;;;;;;5.40;2.80;;;;;;;-9.70;71.31;99723.48;102235;1317;74228;-19
2021/12/23 00:45:55;;;;;;;3.00;2.30;;;;;;;-9.15;69.31;99728.59;102238;1312;61276;-19
2021/12/23 00:48:23;;;;;;;6.10;3.30;;;;;;;-9.38;68.26;99723.65;102268;1312;61096;-19
2021/12/23 00:50:52;;;;;;;5.40;3.30;;;;;;;-9.85;69.34;99725.15;102107;1312;73633;-19
2021/12/23 00:53:23;;;;;;;11.20;3.10;;;;;;;-10.24;70.36;99724.63;102266;1313;75795;-19
2021/12/23 00:55:54;;;;;;;2.20;1.90;;;;;;;-10.38;70.43;99723.45;102276;1317;74393;-19
2021/12/23 00:58:22;;;;;;;4.20;2.70;;;;;;;-10.60;70.96;99721.64;102120;1316;62497;-20
2021/12/23 01:00:50;;;;;;;4.20;2.30;;;;;;;-10.26;71.26;99724.95;102215;1312;61916;-19
2021/12/23 01:03:19;;;;;;;3.60;2.60;;;;;;;-9.84;69.76;99725.66;102218;1312;76000;-19
2021/12/23 01:05:47;;;;;;;4.30;2.90;;;;;;;-9.60;68.86;99728.95;102207;1312;76101;-19
2021/12/23 01:08:35;;;;;;;4.50;3.10;;;;;;;-9.89;69.66;99722.91;102120;1316;74471;-19
2021/12/23 01:11:04;;;;;;;4.00;2.80;;;;;;;-9.94;70.21;99719.80;102090;1312;61056;-20
2021/12/23 01:13:33;;;;;;;2.50;1.90;;;;;;;-10.41;72.36;99725.42;102034;1313;61083;-19
2021/12/23 01:16:07;;;;;;;3.40;1.90;;;;;;;-10.41;72.03;99726.80;102125;1312;74750;-19
2021/12/23 01:18:51;;;;;;;2.80;2.00;;;;;;;-10.31;71.86;99723.89;102126;1313;75898;-19
2021/12/23 01:21:19;;;;;;;4.20;2.10;;;;;;;-9.58;69.86;99727.64;101746;1317;74903;-20
2021/12/23 01:23:50;;;;;;;6.70;4.40;;;;;;;-9.49;69.15;99726.89;102256;1313;61210;-19
2021/12/23 01:26:22;;;;;;;4.50;2.70;;;;;;;-9.95;69.73;99717.62;102242;1312;61158;-19
2021/12/23 01:28:57;;;;;;;4.60;2.90;;;;;;;-10.28;70.24;99714.86;102143;1314;75773;-19
2021/12/23 01:31:28;;;;;;;2.20;1.80;;;;;;;-10.61;71.87;99716.93;102138;1314;75964;-19
2021/12/23 01:33:56;;;;;;;4.10;2.60;;;;;;;-10.73;72.07;99714.72;102054;1314;74287;-19
2021/12/23 01:36:25;;;;;;;3.30;1.60;;;;;;;-10.69;72.36;99709.59;102186;1312;62959;-19
2021/12/23 01:38:53;;;;;;;3.50;2.40;;;;;;;-10.01;69.91;99711.33;101906;1319;61191;-19
2021/12/23 01:41:23;;;;;;;3.80;2.50;;;;;;;-9.89;69.10;99708.46;102223;1313;75602;-19
2021/12/23 01:43:52;;;;;;;3.30;2.20;;;;;;;-10.15;69.44;99713.00;102243;1312;75474;-19
2021/12/23 01:46:22;;;;;;;3.00;2.10;;;;;;;-10.49;70.08;99715.23;102221;1313;74389;-20
2021/12/23 01:48:51;;;;;;;6.50;3.20;;;;;;;-10.74;71.24;99713.88;102132;1313;61179;-19
2021/12/23 01:51:20;;;;;;;5.40;3.30;;;;;;;-10.88;71.78;99714.33;102252;1314;61264;-19
2021/12/23 01:53:48;;;;;;;3.80;2.10;;;;;;;-10.76;71.97;99706.95;102193;1312;75385;-19
2021/12/23 01:56:17;;;;;;;6.70;2.80;;;;;;;-10.24;69.83;99709.70;102168;1313;76412;-19
2021/12/23 01:58:48;;;;;;;7.20;3.10;;;;;;;-9.96;69.01;99709.54;102120;1314;74457;-19
2021/12/23 02:01:16;;;;;;;2.90;1.60;;;;;;;-9.94;69.16;99711.76;102219;1311;61208;-20
2021/12/23 02:03:45;;;;;;;4.50;3.00;;;;;;;-10.09;68.78;99711.57;102190;1313;61109;-19
2021/12/23 02:06:14;;;;;;;3.10;2.30;;;;;;;-10.53;69.79;99711.98;102158;1312;73224;-19
2021/12/23 02:08:42;;;;;;;4.10;1.90;;;;;;;-10.82;71.08;99711.39;102129;1316;76158;-19
2021/12/23 02:11:11;;;;;;;3.00;1.60;;;;;;;-10.68;71.90;99714.12;102197;1313;74299;-19
2021/12/23 02:13:39;;;;;;;1.80;1.50;;;;;;;-9.74;69.07;99712.51;102245;1313;61122;-20
2021/12/23 02:16:08;;;;;;;4.80;2.80;;;;;;;-9.54;67.33;99718.27;102273;1313;61167;-19
2021/12/23 02:18:36;;;;;;;4.60;2.70;;;;;;;-9.81;68.41;99713.93;102240;1313;75649;-19
2021/12/23 02:21:05;;;;;;;2.40;2.00;;;;;;;-10.10;68.89;99714.92;102221;1314;76013;-19
2021/12/23 02:23:40;;;;;;;5.60;3.30;;;;;;;-10.48;70.74;99713.27;101684;1316;74207;-19
2021/12/23 02:26:08;;;;;;;2.00;1.00;;;;;;;-10.51;70.62;99709.51;101827;1315;61143;-19
2021/12/23 02:28:37;;;;;;;2.10;1.20;;;;;;;-10.29;71.02;99711.65;102256;1313;61260;-19
2021/12/23 02:31:05;;;;;;;2.30;1.80;;;;;;;-9.53;69.00;99708.52;102223;1316;75385;-19
2021/12/23 02:33:34;;;;;;;3.20;2.30;;;;;;;-9.27;67.37;99710.13;102245;1313;74478;-19
2021/12/23 02:36:03;;;;;;;4.10;1.70;;;;;;;-9.32;67.06;99707.91;102304;1313;74463;-19
2021/12/23 02:38:32;;;;;;;1.30;1.00;;;;;;;-9.52;67.59;99708.88;102261;1312;61435;-20
2021/12/23 02:41:00;;;;;;;1.10;1.00;;;;;;;-9.94;68.42;99702.18;102213;1313;61188;-19
2021/12/23 02:43:29;;;;;;;1.30;0.90;;;;;;;-10.32;69.97;99704.21;102224;1312;74704;-19
2021/12/23 02:45:58;;;;;;;8.40;1.90;;;;;;;-10.45;70.25;99704.73;102181;1312;76117;-19
2021/12/23 02:48:34;;;;;;;2.00;1.60;;;;;;;-9.89;68.88;99701.23;102132;1313;74739;-19
2021/12/23 02:51:04;;;;;;;6.70;2.30;;;;;;;-9.60;67.26;99700.21;102114;1313;61311;-19
2021/12/23 02:53:32;;;;;;;6.60;3.00;;;;;;;-9.82;67.30;99697.80;102147;1316;61228;-18
2021/12/23 02:56:02;;;;;;;5.80;3.00;;;;;;;-10.31;69.10;99693.31;102263;1316;75651;-19
2021/12/23 02:58:30;;;;;;;6.00;3.10;;;;;;;-10.67;69.60;99696.20;102299;1312;76120;-19
2021/12/23 03:01:00;;;;;;;2.10;1.10;;;;;;;-10.96;69.99;99692.73;102187;1312;74506;-19
2021/12/23 03:03:28;;;;;;;2.90;1.60;;;;;;;-10.79;70.53;99694.66;102194;1312;63514;-20
2021/12/23 03:05:58;;;;;;;5.10;2.30;;;;;;;-10.07;68.91;99695.96;102283;1312;61246;-20
2021/12/23 03:08:40;;;;;;;4.60;2.60;;;;;;;-9.96;67.91;99693.42;101738;1315;76244;-20
2021/12/23 03:11:10;;;;;;;4.30;1.30;;;;;;;-10.23;67.91;99691.41;102248;1313;76109;-19
2021/12/23 03:13:38;;;;;;;3.20;2.30;;;;;;;-10.70;68.27;99691.28;101882;1315;74500;-19
2021/12/23 03:16:07;;;;;;;4.00;1.70;;;;;;;-11.16;69.58;99690.88;102207;1313;61195;-20
2021/12/23 03:18:36;;;;;;;2.70;1.80;;;;;;;-11.47;71.03;99687.84;102248;1312;61246;-19
2021/12/23 03:21:05;;;;;;;5.40;2.50;;;;;;;-10.96;69.87;99690.38;102287;1312;74033;-19
2021/12/23 03:23:33;;;;;;;9.90;4.00;;;;;;;-10.63;67.63;99690.06;102160;1312;75869;-19
2021/12/23 03:26:02;;;;;;;4.40;2.50;;;;;;;-10.86;67.47;99694.89;102115;1316;74372;-19
2021/12/23 03:28:31;;;;;;;5.10;2.90;;;;;;;-11.27;68.29;99696.06;102132;1319;61303;-19
2021/12/23 03:30:59;;;;;;;2.80;1.30;;;;;;;-11.73;69.34;99694.55;102255;1312;61841;-19
2021/12/23 03:33:28;;;;;;;3.10;1.80;;;;;;;-12.07;70.54;99693.77;102156;1313;75830;-19
2021/12/23 03:35:56;;;;;;;4.60;2.70;;;;;;;-11.58;70.15;99690.48;102138;1312;76067;-20
2021/12/23 03:38:24;;;;;;;5.70;2.90;;;;;;;-11.06;67.93;99693.40;102104;1314;74593;-19
2021/12/23 03:40:53;;;;;;;6.60;3.50;;;;;;;-11.15;67.46;99693.08;102199;1316;61206;-20
2021/12/23 03:43:22;;;;;;;5.90;3.80;;;;;;;-11.49;68.11;99694.17;102264;1313;61205;-19
2021/12/23 03:45:50;;;;;;;4.10;2.10;;;;;;;-11.88;68.63;99688.77;102254;1312;74542;-19
2021/12/23 03:48:19;;;;;;;3.20;1.50;;;;;;;-12.18;69.57;99687.85;102264;1313;75958;-19
2021/12/23 03:50:47;;;;;;;8.70;2.40;;;;;;;-11.75;69.54;99687.98;102293;1312;73579;-19
2021/12/23 03:53:16;;;;;;;5.00;3.00;;;;;;;-11.28;67.51;99688.33;102302;1316;61202;-19
2021/12/23 03:55:44;;;;;;;6.20;4.20;;;;;;;-11.41;67.36;99688.11;102328;1312;61101;-19
2021/12/23 03:58:13;;;;;;;6.00;3.60;;;;;;;-11.80;68.08;99680.52;102287;1313;74207;-19
2021/12/23 04:00:43;;;;;;;5.10;3.10;;;;;;;-12.25;68.94;99676.66;102144;1313;75252;-18
2021/12/23 04:03:11;;;;;;;4.10;1.70;;;;;;;-12.49;69.89;99674.61;102292;1312;73671;-19
2021/12/23 04:05:40;;;;;;;6.90;2.80;;;;;;;-11.93;68.86;99675.09;102271;1312;61080;-19
2021/12/23 04:08:08;;;;;;;4.60;2.90;;;;;;;-11.51;67.65;99680.39;102251;1315;61291;-19
2021/12/23 04:10:37;;;;;;;7.00;4.00;;;;;;;-11.69;67.04;99679.39;102205;1313;74635;-19
2021/12/23 04:13:05;;;;;;;8.00;4.10;;;;;;;-12.09;67.72;99674.95;102172;1315;76145;-19
2021/12/23 04:15:34;;;;;;;2.60;1.70;;;;;;;-12.56;69.18;99675.32;102124;1312;74146;-18
2021/12/23 04:18:03;;;;;;;2.00;1.10;;;;;;;-12.70;70.27;99678.86;102231;1312;61028;-19
2021/12/23 04:20:35;;;;;;;5.10;2.60;;;;;;;-12.07;69.26;99677.48;101870;1315;61092;-19
2021/12/23 04:23:04;;;;;;;4.50;2.60;;;;;;;-11.72;67.69;99681.67;102180;1310;75439;-19
2021/12/23 04:25:33;;;;;;;3.80;2.70;;;;;;;-11.90;66.55;99676.65;102063;1315;73658;-19
2021/12/23 04:28:02;;;;;;;7.60;3.20;;;;;;;-12.28;67.95;99674.09;102083;1312;74541;-19
2021/12/23 04:30:30;;;;;;;5.40;2.20;;;;;;;-12.66;68.48;99678.44;102018;1319;61497;-19
2021/12/23 04:32:58;;;;;;;2.80;1.80;;;;;;;-12.56;68.98;99680.51;102117;1312;61333;-19
2021/12/23 04:35:28;;;;;;;6.40;2.90;;;;;;;-11.87;67.71;99684.92;102263;1312;73988;-19
2021/12/23 04:37:57;;;;;;;7.90;4.30;;;;;;;-11.76;66.42;99682.27;102160;1316;76216;-19
2021/12/23 04:40:26;;;;;;;4.20;2.30;;;;;;;-12.07;66.48;99683.20;102145;1317;73100;-19
2021/12/23 04:42:54;;;;;;;5.10;2.20;;;;;;;-12.50;67.47;99681.64;102278;1313;62150;-18
2021/12/23 04:45:22;;;;;;;4.80;2.10;;;;;;;-12.87;68.92;99681.81;102171;1313;61149;-18
2021/12/23 04:47:51;;;;;;;4.20;2.40;;;;;;;-12.48;68.84;99680.84;102025;1313;74595;-19
2021/12/23 04:50:19;;;;;;;7.40;4.10;;;;;;;-11.88;66.85;99684.22;102135;1313;76310;-19
2021/12/23 04:52:47;;;;;;;10.40;5.50;;;;;;;-11.94;66.26;99686.45;102189;1314;73585;-19
2021/12/23 04:55:15;;;;;;;8.20;5.10;;;;;;;-12.28;66.03;99682.78;102227;1312;61232;-19
2021/12/23 04:57:44;;;;;;;5.10;2.40;;;;;;;-12.70;67.11;99683.36;102207;1312;61342;-19
2021/12/23 05:00:15;;;;;;;2.90;1.40;;;;;;;-12.90;67.68;99683.58;102175;1312;74628;-19
2021/12/23 05:02:43;;;;;;;7.20;2.60;;;;;;;-12.28;67.26;99686.63;101876;1313;76133;-19
2021/12/23 05:05:14;;;;;;;7.30;3.90;;;;;;;-11.88;66.05;99683.55;102234;1316;73613;-19
2021/12/23 05:07:42;;;;;;;11.40;5.00;;;;;;;-12.05;65.37;99680.23;102242;1312;61280;-19
2021/12/23 05:10:11;;;;;;;9.30;4.20;;;;;;;-12.44;65.97;99681.27;102275;1312;61100;-19
2021/12/23 05:12:46;;;;;;;5.10;2.20;;;;;;;-12.87;66.38;99681.80;102195;1313;75799;-19
2021/12/23 05:15:18;;;;;;;4.40;1.60;;;;;;;-12.78;67.11;99682.34;102196;1313;75114;-19
2021/12/23 05:17:47;;;;;;;2.10;1.00;;;;;;;-12.11;66.50;99680.79;102194;1317;73091;-19
2021/12/23 05:20:16;;;;;;;4.90;2.10;;;;;;;-12.02;66.23;99677.95;102259;1314;61314;-19
2021/12/23 05:22:45;;;;;;;4.00;2.40;;;;;;;-12.46;66.90;99673.54;102066;1314;61272;-19
2021/12/23 05:25:14;;;;;;;3.30;1.80;;;;;;;-12.94;68.36;99674.30;102268;1312;75666;-19
2021/12/23 05:27:44;;;;;;;1.10;0.90;;;;;;;-13.11;68.47;99671.21;102260;1313;73110;-19
2021/12/23 05:30:15;;;;;;;4.00;2.40;;;;;;;-12.55;67.91;99670.98;102135;1312;72382;-19
2021/12/23 05:32:43;;;;;;;8.50;4.00;;;;;;;-12.09;66.75;99671.45;102060;1312;62079;-19
2021/12/23 05:35:12;;;;;;;4.80;2.60;;;;;;;-12.11;66.37;99663.39;102245;1312;61761;-19
2021/12/23 05:37:41;;;;;;;1.30;1.20;;;;;;;-12.48;65.87;99660.44;101816;1314;73534;-19
2021/12/23 05:40:11;;;;;;;2.60;1.30;;;;;;;-12.95;66.47;99658.05;102069;1313;74611;-18
2021/12/23 05:42:39;;;;;;;1.10;1.00;;;;;;;-12.93;67.24;99662.12;101856;1319;74211;-19
2021/12/23 05:45:08;;;;;;;2.50;1.60;;;;;;;-12.27;66.33;99666.05;102209;1312;61230;-19
2021/12/23 05:47:37;;;;;;;3.80;2.00;;;;;;;-12.17;65.43;99666.11;102179;1312;62156;-19
2021/12/23 05:50:06;;;;;;;8.10;3.60;;;;;;;-12.54;65.37;99667.67;101884;1314;381137;-19
2021/12/23 05:52:35;;;;;;;2.20;1.60;;;;;;;-13.05;66.07;99669.70;102182;1315;75841;-19
2021/12/23 05:55:04;;;;;;;4.60;1.30;;;;;;;-13.38;67.24;99663.23;102184;1313;72262;-19
2021/12/23 05:57:34;;;;;;;3.20;2.00;;;;;;;-12.81;67.00;99662.37;102238;1312;61277;-19
2021/12/23 06:00:06;;;;;;;5.60;2.00;;;;;;;-12.28;65.15;99658.85;102260;1312;62317;-19
2021/12/23 06:02:37;;;;;;;8.60;4.30;;;;;;;-12.35;65.00;99657.86;102234;1312;74219;-19
2021/12/23 06:05:09;;;;;;;7.00;2.80;;;;;;;-12.80;65.34;99659.23;102162;1312;76128;-19
2021/12/23 06:07:39;;;;;;;3.70;2.00;;;;;;;-13.27;65.81;99661.13;102287;1312;73421;-19
2021/12/23 06:10:08;;;;;;;4.60;1.40;;;;;;;-13.14;66.39;99657.43;102112;1313;62031;-18
2021/12/23 06:12:38;;;;;;;6.10;2.60;;;;;;;-12.44;65.68;99658.34;102246;1312;61168;-19
2021/12/23 06:15:07;;;;;;;6.30;4.10;;;;;;;-12.34;64.54;99664.06;102071;1313;74936;-19
2021/12/23 06:17:36;;;;;;;6.90;3.90;;;;;;;-12.64;64.80;99664.27;102269;1312;75872;-19
2021/12/23 06:20:04;;;;;;;2.30;1.40;;;;;;;-13.07;65.19;99665.13;102241;1312;73102;-19
2021/12/23 06:22:35;;;;;;;3.00;1.30;;;;;;;-13.35;65.90;99666.13;102162;1316;62346;-18
2021/12/23 06:25:04;;;;;;;2.50;1.30;;;;;;;-12.77;66.13;99666.81;102287;1316;61116;-19
2021/12/23 06:27:33;;;;;;;1.70;1.30;;;;;;;-12.21;65.09;99665.52;102148;1314;74814;-19
2021/12/23 06:30:14;;;;;;;3.80;2.50;;;;;;;-12.27;64.85;99665.39;102318;1312;76254;-19
2021/12/23 06:32:43;;;;;;;4.10;1.90;;;;;;;-12.77;64.87;99666.15;102199;1316;71828;-18
2021/12/23 06:35:11;;;;;;;4.10;1.80;;;;;;;-13.18;65.70;99670.21;101830;1317;61853;-19
2021/12/23 06:37:40;;;;;;;2.50;1.40;;;;;;;-13.04;65.93;99665.86;102085;1313;61159;-19
2021/12/23 06:40:08;;;;;;;1.70;1.30;;;;;;;-12.30;65.11;99664.15;102038;1312;75683;-19
2021/12/23 06:42:36;;;;;;;2.30;1.50;;;;;;;-12.09;64.36;99666.43;102233;1313;75286;-19
2021/12/23 06:45:06;;;;;;;1.60;1.40;;;;;;;-12.33;64.48;99666.44;102212;1312;74318;-19
2021/12/23 06:47:35;;;;;;;4.00;2.50;;;;;;;-12.78;64.61;99661.45;102190;1313;61207;-19
2021/12/23 06:50:07;;;;;;;0.60;0.60;;;;;;;-13.15;65.42;99661.76;102279;1313;62328;-18
2021/12/23 06:52:36;;;;;;;0.90;0.80;;;;;;;-13.13;66.00;99664.80;102071;1313;75532;-19
2021/12/23 06:55:06;;;;;;;2.10;1.60;;;;;;;-12.53;65.08;99667.68;101895;1315;73464;-19
2021/12/23 06:57:35;;;;;;;5.20;2.90;;;;;;;-12.29;64.72;99667.19;102265;1318;73765;-19
2021/12/23 07:00:05;;;;;;;1.10;0.80;;;;;;;-12.46;65.13;99667.52;102295;1318;61071;-19
2021/12/23 07:02:37;;;;;;;6.20;3.80;;;;;;;-12.67;65.79;99666.20;101739;1317;62248;-19
2021/12/23 07:05:22;;;;;;;0.80;0.60;;;;;;;-12.76;66.36;99665.69;102288;1316;73880;-19
2021/12/23 07:10:27;;;;;;;3.50;1.60;;;;;;;-11.47;64.53;99660.85;102267;1312;73320;-19
2021/12/23 07:12:56;;;;;;;4.10;3.10;;;;;;;-11.01;62.25;99658.75;102210;1313;61220;-19
2021/12/23 07:15:25;;;;;;;9.00;4.20;;;;;;;-11.00;62.28;99658.61;102117;1313;61985;-19
2021/12/23 07:17:54;;;;;;;9.70;5.10;;;;;;;-11.15;61.95;99653.17;102283;1314;71868;-19
2021/12/23 07:20:23;;;;;;;4.70;3.30;;;;;;;-11.42;61.63;99648.03;102094;1313;76012;-19
2021/12/23 07:22:51;;;;;;;4.80;3.50;;;;;;;-11.72;61.92;99648.52;101926;1313;74251;-18
2021/12/23 07:25:19;;;;;;;10.10;5.60;;;;;;;-12.04;62.34;99649.44;102092;1312;61214;-19
2021/12/23 07:27:48;;;;;;;5.60;2.70;;;;;;;-12.20;63.45;99651.31;102054;1316;61116;-19
2021/12/23 07:30:18;;;;;;;7.20;3.80;;;;;;;-11.60;63.68;99654.42;102100;1316;74468;-19
2021/12/23 07:32:49;;;;;;;6.70;4.30;;;;;;;-10.86;61.97;99653.96;102258;1313;74127;-19
2021/12/23 07:35:18;;;;;;;12.00;6.80;;;;;;;-11.08;61.09;99653.80;101967;1313;74623;-19
2021/12/23 07:37:46;;;;;;;5.00;3.10;;;;;;;-11.41;62.39;99654.59;102081;1312;61227;-19
2021/12/23 07:40:16;;;;;;;11.10;6.80;;;;;;;-11.98;64.05;99653.23;102163;1313;62075;-19
2021/12/23 07:42:53;;;;;;;21.70;5.90;;;;;;;-12.08;64.45;99650.20;102159;1312;75389;-19
2021/12/23 07:45:24;;;;;;;5.60;2.60;;;;;;;-11.98;64.61;99649.04;102000;1314;75902;-19
2021/12/23 07:47:52;;;;;;;3.10;1.80;;;;;;;-11.73;64.01;99643.46;102187;1312;73599;-19
2021/12/23 07:50:21;;;;;;;5.00;3.10;;;;;;;-10.94;63.06;99642.09;102215;1312;61140;-19
2021/12/23 07:52:50;;;;;;;5.90;5.00;;;;;;;-10.31;61.74;99638.06;102160;1312;61201;-19
2021/12/23 07:55:20;;;;;;;16.80;10.20;;;;;;;-10.19;61.23;99639.73;102247;1314;75592;-19
2021/12/23 07:57:49;;;;;;;12.50;7.00;;;;;;;-10.26;60.37;99641.33;102251;1312;77121;-19
2021/12/23 08:00:18;;;;;;;5.80;3.30;;;;;;;-10.61;61.05;99642.23;102299;1312;73411;-19
2021/12/23 08:02:46;;;;;;;3.00;2.30;;;;;;;-10.91;62.48;99639.63;102338;1311;61305;-19
2021/12/23 08:05:14;;;;;;;9.90;4.00;;;;;;;-11.20;63.59;99638.84;102163;1316;61196;-19
2021/12/23 08:07:43;;;;;;;6.10;3.40;;;;;;;-11.16;64.19;99639.24;102049;1318;75662;-19
2021/12/23 08:10:13;;;;;;;16.10;7.10;;;;;;;-11.28;64.68;99632.52;102265;1313;75332;-19
2021/12/23 08:12:42;;;;;;;16.50;9.10;;;;;;;-11.11;64.55;99632.11;102280;1312;71882;-19
2021/12/23 08:15:11;;;;;;;15.30;6.20;;;;;;;-10.80;63.93;99630.56;102256;1319;61196;-19
2021/12/23 08:17:40;;;;;;;18.10;7.90;;;;;;;-10.68;63.23;99632.23;102241;1313;61267;-19
2021/12/23 08:20:11;;;;;;;14.50;6.40;;;;;;;-10.70;64.01;99631.86;102201;1312;74189;-19
2021/12/23 08:22:40;;;;;;;8.60;4.40;;;;;;;-10.54;63.21;99629.05;102170;1317;74522;-19
2021/12/23 08:25:09;;;;;;;10.30;5.10;;;;;;;-10.57;63.50;99630.20;102169;1319;73236;-19
2021/12/23 08:27:39;;;;;;;17.50;7.50;;;;;;;-10.47;63.95;99619.09;102074;1313;61964;-19
2021/12/23 08:30:08;;;;;;;24.30;11.20;;;;;;;-10.27;63.75;99615.27;102147;1312;61916;-19
2021/12/23 08:32:38;;;;;;;14.80;6.90;;;;;;;-9.91;63.66;99612.66;101834;1313;75433;-19
2021/12/23 08:35:08;;;;;;;20.20;8.80;;;;;;;-9.73;63.34;99609.48;102136;1313;75928;-19
2021/12/23 08:37:37;;;;;;;8.50;3.70;;;;;;;-9.56;62.96;99613.17;102048;1313;74508;-19
2021/12/23 08:40:08;;;;;;;32.40;14.90;;;;;;;-9.43;62.75;99609.60;102099;1313;62095;-18
2021/12/23 08:42:36;;;;;;;31.00;15.50;;;;;;;-9.14;62.12;99604.11;99761;1316;1003959;-18
2021/12/23 08:45:07;;;;;;;12.30;6.40;;;;;;;-8.93;61.72;99596.52;102253;1312;75284;-19
2021/12/23 08:47:36;;;;;;;19.10;9.90;;;;;;;-8.76;61.42;99595.27;101908;1315;76136;-18
2021/12/23 08:50:06;;;;;;;21.60;11.50;;;;;;;-8.61;61.34;99590.47;102158;1318;74528;-18
2021/12/23 08:52:35;;;;;;;13.90;7.10;;;;;;;-8.47;60.94;99588.51;102045;1316;61106;-18
2021/12/23 08:55:05;;;;;;;20.80;10.70;;;;;;;-8.40;60.51;99586.50;102256;1313;61161;-18
2021/12/23 08:57:33;;;;;;;16.60;8.70;;;;;;;-8.27;61.10;99581.83;101788;1319;75577;-18
2021/12/23 09:00:04;;;;;;;20.60;8.20;;;;;;;-8.30;60.82;99579.63;102274;1316;75858;-18
2021/12/23 09:02:32;;;;;;;26.50;14.50;;;;;;;-8.23;61.29;99576.29;102258;1313;74427;-18
2021/12/23 09:05:01;;;;;;;15.10;6.90;;;;;;;-8.03;60.69;99572.31;102158;1312;61246;-18
2021/12/23 09:07:29;;;;;;;25.20;10.80;;;;;;;-7.95;60.52;99567.45;102251;1313;61333;-18
2021/12/23 09:09:58;;;;;;;24.50;10.00;;;;;;;-7.84;60.47;99566.61;102282;1316;74993;-18
2021/12/23 09:12:26;;;;;;;14.30;4.70;;;;;;;-7.72;59.92;99565.63;102191;1312;75134;-18
2021/12/23 09:14:55;;;;;;;12.50;6.50;;;;;;;-7.78;60.19;99562.75;102217;1319;73551;-18
2021/12/23 09:17:23;;;;;;;8.00;3.40;;;;;;;-7.82;60.59;99557.86;102230;1313;61204;-18
2021/12/23 09:19:52;;;;;;;17.00;8.30;;;;;;;-8.08;60.96;99558.65;102252;1317;61156;-18
2021/12/23 09:22:20;;;;;;;12.10;6.30;;;;;;;-8.06;61.32;99555.45;102233;1312;75774;-18
2021/12/23 09:24:56;;;;;;;12.10;6.80;;;;;;;-7.83;60.96;99559.38;102228;1313;74645;-18
2021/12/23 09:27:34;;;;;;;26.40;11.20;;;;;;;-7.62;60.17;99554.34;102273;1312;74431;-18
2021/12/23 09:32:54;;;;;;;17.00;9.20;;;;;;;-7.65;60.14;99544.90;102157;1313;62090;-18
2021/12/23 09:35:43;;;;;;;23.80;11.00;;;;;;;-7.74;59.93;99543.88;102215;1312;73069;-18
2021/12/23 09:38:16;;;;;;;18.50;10.80;;;;;;;-7.84;60.50;99539.48;102205;1316;75250;-18
2021/12/23 09:40:44;;;;;;;11.90;5.40;;;;;;;-7.82;60.52;99538.46;102206;1312;74532;-18
2021/12/23 09:43:13;;;;;;;5.90;3.90;;;;;;;-7.85;60.48;99535.77;102040;1318;61371;-18
2021/12/23 09:45:42;;;;;;;4.30;2.70;;;;;;;-8.04;60.78;99531.69;102093;1316;61128;-18
2021/12/23 09:48:11;;;;;;;17.10;8.50;;;;;;;-8.03;61.13;99531.18;102228;1312;73337;-18
2021/12/23 09:50:40;;;;;;;6.40;4.00;;;;;;;-8.31;61.68;99527.91;102159;1316;75864;-19
2021/12/23 09:53:10;;;;;;;10.20;5.70;;;;;;;-8.26;62.04;99521.87;102150;1313;74256;-19
2021/12/23 09:55:38;;;;;;;10.30;5.10;;;;;;;-8.40;62.93;99525.37;102082;1318;61081;-18
2021/12/23 09:58:08;;;;;;;10.70;6.10;;;;;;;-8.20;62.05;99517.33;102080;1313;61174;-18
2021/12/23 10:00:38;;;;;;;13.40;6.90;;;;;;;-7.93;61.57;99516.54;102227;1313;75383;-18
2021/12/23 10:03:08;;;;;;;10.40;5.80;;;;;;;-7.61;60.82;99507.80;102086;1319;76226;-18
2021/12/23 10:05:38;;;;;;;9.00;6.10;;;;;;;-7.49;60.10;99503.91;102026;1318;73438;-18
2021/12/23 10:08:09;;;;;;;8.60;4.60;;;;;;;-7.52;60.05;99505.93;102195;1313;62230;-18
2021/12/23 10:10:46;;;;;;;9.70;4.70;;;;;;;-7.76;60.39;99504.42;102264;1313;61159;-19
2021/12/23 10:38:31;;;;;;;6.00;1.80;;;;;;;-7.57;60.48;99446.91;101964;1316;61989;-18
2021/12/23 10:41:06;;;;;;;7.10;3.60;;;;;;;-7.85;60.49;99445.91;102274;1313;75256;-18
2021/12/23 10:43:42;;;;;;;7.40;4.50;;;;;;;-8.19;61.09;99441.35;102229;1318;73375;-18
2021/12/23 10:46:27;;;;;;;5.40;3.20;;;;;;;-8.45;61.86;99442.50;102059;1317;74565;-18
2021/12/23 10:49:53;;;;;;;6.00;2.80;;;;;;;-8.50;62.95;99441.64;102055;1313;63746;-18
2021/12/23 10:52:03;;;;;;;4.20;3.20;;;;;;;-7.45;61.58;99440.47;102024;1317;61383;-19
2021/12/23 11:00:19;;;;;;;19.90;10.80;;;;;;;-7.01;59.44;99430.57;102049;1313;73448;-19
2021/12/23 11:02:57;;;;;;;;;;;;;;;-7.31;59.83;99426.45;101929;1313;62122;-19
2021/12/23 11:05:30;;;;;;;13.40;6.90;;;;;;;-7.65;61.04;99419.09;102217;1312;61463;-18
2021/12/23 11:08:18;;;;;;;15.10;5.70;;;;;;;-7.86;61.60;99415.41;102159;1312;75737;-18
2021/12/23 11:29:10;;;;;;;8.80;6.10;;;;;;;-7.05;61.12;99395.98;102033;1319;73553;-18
2021/12/23 11:41:59;;;;;;;5.00;2.50;;;;;;;-7.95;64.60;99378.52;102077;1313;74361;-20
2021/12/23 11:44:33;;;;;;;7.50;4.80;;;;;;;-7.54;64.73;99378.75;102013;1317;62559;-18
2021/12/23 11:47:09;;;;;;;14.80;8.40;;;;;;;-6.53;62.60;99373.93;102061;1313;61210;-18
2021/12/23 11:49:40;;;;;;;7.80;4.40;;;;;;;-6.28;60.46;99376.96;101729;1319;75670;-18
2021/12/23 11:52:09;;;;;;;7.70;3.10;;;;;;;-6.42;60.33;99373.20;101998;1313;76035;-18
2021/12/23 11:54:42;;;;;;;12.30;5.50;;;;;;;-6.66;61.63;99373.52;101965;1306;70610;-19
2021/12/23 11:57:13;;;;;;;;;;;;;;;-6.86;61.98;99365.85;101874;1312;61379;-18
2021/12/23 11:59:44;;;;;;;14.00;5.70;;;;;;;-7.12;62.93;99373.58;101902;1316;62154;-18
2021/12/23 12:02:19;;;;;;;6.30;4.20;;;;;;;-7.46;63.35;99370.48;101853;1318;75561;-18
2021/12/23 12:04:49;;;;;;;10.70;5.60;;;;;;;-7.64;63.96;99368.52;101835;1318;73012;-18
2021/12/23 12:07:18;;;;;;;10.00;5.40;;;;;;;-7.78;64.61;99370.05;102045;1313;74335;-18
2021/12/23 12:10:00;;;;;;;14.00;6.00;;;;;;;-7.93;65.03;99359.45;102093;1316;62423;-18
2021/12/23 12:12:29;;;;;;;10.20;4.40;;;;;;;-7.87;65.21;99359.11;101741;1319;61864;-18
2021/12/23 12:14:58;;;;;;;8.80;6.80;;;;;;;-6.85;63.68;99361.95;101771;1319;75927;-18
2021/12/23 12:17:30;;;;;;;9.60;5.70;;;;;;;-6.31;61.80;99354.67;101889;1313;75180;-18
2021/12/23 12:20:09;;;;;;;7.20;3.40;;;;;;;-6.34;61.24;99357.23;102024;1313;74484;-18
2021/12/23 12:22:57;;;;;;;7.50;4.20;;;;;;;-6.70;61.63;99351.40;101999;1312;61243;-18
2021/12/23 12:25:25;;;;;;;16.60;4.90;;;;;;;-6.99;62.21;99352.75;101762;1317;61320;-18
2021/12/23 12:27:57;;;;;;;7.70;4.60;;;;;;;-7.26;62.78;99350.67;102062;1317;74066;-18
2021/12/23 12:30:42;;;;;;;6.80;3.90;;;;;;;-7.49;63.67;99348.39;102060;1317;74994;-18
2021/12/23 12:33:11;;;;;;;7.40;4.00;;;;;;;-7.68;63.94;99343.56;101828;1316;73205;-18
2021/12/23 12:35:41;;;;;;;6.20;3.10;;;;;;;-7.88;64.41;99340.89;102120;1316;62293;-18
2021/12/23 12:38:21;;;;;;;11.00;4.30;;;;;;;-8.11;65.13;99338.41;102143;1312;61387;-18
2021/12/23 12:41:05;;;;;;;5.30;3.70;;;;;;;-7.69;65.58;99337.46;102180;1318;74771;-18
2021/12/23 12:43:48;;;;;;;9.40;5.20;;;;;;;-6.69;62.99;99338.90;102241;1318;76040;-18